Time;durP1;ratioP1;P1;durP2;ratioP2;P2;SDS_P1;SDS_P2;PMS_P1;PMS_P2;Temp;Humidity;BMP_temperature;BMP_pressure;BME280_temperature;BME280_humidity;BME280_pressure;Samples;Min_cycle;Max_cycle;Signal;HPM_P1;HPM_P2
2023/05/31 00:00:03;;;;;;;1.93;0.90;;;16.90;81.10;;;;;;5077651;28;20194;-65
2023/05/31 00:02:31;;;;;;;0.60;0.60;;;16.90;81.10;;;;;;5083285;28;20774;-65
2023/05/31 00:04:58;;;;;;;2.73;0.90;;;16.90;81.00;;;;;;5091416;28;20271;-64
2023/05/31 00:07:26;;;;;;;1.80;0.80;;;16.90;81.00;;;;;;5092070;28;20197;-65
2023/05/31 00:09:53;;;;;;;1.73;0.80;;;16.80;80.90;;;;;;5084315;28;20612;-65
2023/05/31 00:12:20;;;;;;;0.60;0.60;;;16.80;81.60;;;;;;5091503;28;20231;-65
2023/05/31 00:14:48;;;;;;;0.80;0.80;;;16.80;80.80;;;;;;5088669;28;20196;-65
2023/05/31 00:17:15;;;;;;;0.80;0.70;;;16.70;80.70;;;;;;5085952;28;20186;-65
2023/05/31 00:19:43;;;;;;;0.80;0.67;;;16.70;80.50;;;;;;5091316;28;20196;-63
2023/05/31 00:22:10;;;;;;;0.90;0.77;;;16.70;80.30;;;;;;5091851;28;20200;-65
2023/05/31 00:24:38;;;;;;;0.57;0.57;;;16.70;80.10;;;;;;5086668;28;20280;-64
2023/05/31 00:27:05;;;;;;;0.90;0.80;;;16.70;80.00;;;;;;5085168;28;20192;-64
2023/05/31 00:29:32;;;;;;;0.60;0.60;;;16.70;79.80;;;;;;5090148;28;20312;-65
2023/05/31 00:32:01;;;;;;;0.83;0.70;;;16.70;79.70;;;;;;5084086;28;20740;-65
2023/05/31 00:34:28;;;;;;;0.60;0.60;;;16.60;79.50;;;;;;5091264;28;20271;-65
2023/05/31 00:36:56;;;;;;;1.10;0.90;;;16.60;79.30;;;;;;5085489;28;20553;-65
2023/05/31 00:39:23;;;;;;;1.30;0.80;;;16.60;79.30;;;;;;5089548;28;20296;-65
2023/05/31 00:41:50;;;;;;;1.33;0.80;;;16.50;79.10;;;;;;5090099;28;20775;-65
2023/05/31 00:44:17;;;;;;;0.60;0.60;;;16.50;79.80;;;;;;5075474;28;20198;-66
2023/05/31 00:46:44;;;;;;;1.53;0.77;;;16.50;79.00;;;;;;5088406;28;20214;-66
2023/05/31 00:49:13;;;;;;;0.60;0.60;;;16.40;78.90;;;;;;5083811;28;20205;-65
2023/05/31 00:51:40;;;;;;;0.50;0.50;;;16.40;78.90;;;;;;5084534;28;20212;-66
2023/05/31 00:54:08;;;;;;;0.83;0.80;;;16.30;78.90;;;;;;5086897;28;20193;-66
2023/05/31 00:56:35;;;;;;;0.70;0.60;;;16.30;79.00;;;;;;5086445;28;20188;-64
2023/05/31 00:59:03;;;;;;;0.70;0.70;;;16.20;78.80;;;;;;5081529;28;20721;-64
2023/05/31 01:01:32;;;;;;;0.60;0.60;;;16.20;78.80;;;;;;5082087;28;20197;-64
2023/05/31 01:04:01;;;;;;;0.70;0.70;;;16.20;78.90;;;;;;5084147;28;20307;-64
2023/05/31 01:06:32;;;;;;;0.70;0.70;;;16.20;78.90;;;;;;5086945;28;20287;-65
2023/05/31 01:09:04;;;;;;;1.00;0.67;;;16.20;78.70;;;;;;5084979;28;20254;-64
2023/05/31 01:11:42;;;;;;;0.70;0.70;;;16.10;78.50;;;;;;5088951;28;20200;-65
2023/05/31 01:14:26;;;;;;;0.70;0.70;;;16.10;78.50;;;;;;5086589;28;20204;-64
2023/05/31 01:16:57;;;;;;;0.80;0.80;;;16.10;78.50;;;;;;5075271;28;20251;-65
2023/05/31 01:19:47;;;;;;;0.60;0.60;;;16.00;78.20;;;;;;5086224;28;20199;-63
2023/05/31 01:22:47;;;;;;;0.70;0.70;;;16.00;78.10;;;;;;5077502;28;20733;-65
2023/05/31 01:25:27;;;;;;;0.70;0.70;;;15.90;78.10;;;;;;5083211;28;20212;-65
2023/05/31 01:27:59;;;;;;;0.90;0.90;;;16.00;78.20;;;;;;5081363;28;20604;-65
2023/05/31 01:30:29;;;;;;;0.70;0.70;;;16.00;78.00;;;;;;5092670;28;20200;-65
2023/05/31 01:32:58;;;;;;;0.70;0.70;;;15.90;78.00;;;;;;5086420;28;20196;-65
2023/05/31 01:35:27;;;;;;;1.67;0.70;;;15.90;78.10;;;;;;5084950;28;20274;-65
2023/05/31 01:37:54;;;;;;;1.10;0.97;;;15.90;78.00;;;;;;5094562;28;20209;-65
2023/05/31 01:40:21;;;;;;;1.37;1.00;;;16.00;78.10;;;;;;5092159;28;20201;-65
2023/05/31 01:42:50;;;;;;;1.53;1.10;;;15.90;78.10;;;;;;5089202;28;20251;-65
2023/05/31 01:45:20;;;;;;;2.03;1.10;;;15.90;78.30;;;;;;5078787;28;20640;-65
2023/05/31 01:47:50;;;;;;;1.07;0.97;;;15.80;78.40;;;;;;5088902;28;20213;-66
2023/05/31 01:50:20;;;;;;;1.17;1.00;;;15.80;78.60;;;;;;5087245;28;20204;-65
2023/05/31 01:52:47;;;;;;;1.43;1.00;;;15.80;78.80;;;;;;5085224;28;20231;-65
2023/05/31 01:55:14;;;;;;;1.33;1.23;;;15.80;79.00;;;;;;5088373;28;20302;-66
2023/05/31 01:57:45;;;;;;;1.93;1.00;;;15.70;79.10;;;;;;5092928;28;20729;-66
2023/05/31 02:00:14;;;;;;;3.03;1.30;;;15.60;79.30;;;;;;5086718;28;20298;-65
2023/05/31 02:02:43;;;;;;;1.17;1.00;;;15.60;79.70;;;;;;5089017;28;20713;-66
2023/05/31 02:05:12;;;;;;;1.90;1.03;;;15.60;79.90;;;;;;5093673;28;20265;-65
2023/05/31 02:07:40;;;;;;;2.10;1.47;;;15.60;79.80;;;;;;5092850;28;20201;-66
2023/05/31 02:10:09;;;;;;;1.40;1.30;;;15.60;79.80;;;;;;5089533;28;20398;-66
2023/05/31 02:12:38;;;;;;;1.37;1.10;;;15.50;79.90;;;;;;5091731;28;20203;-66
2023/05/31 02:15:10;;;;;;;1.93;1.03;;;15.50;80.10;;;;;;5091266;28;20683;-66
2023/05/31 02:17:40;;;;;;;1.17;1.00;;;15.50;80.30;;;;;;5086761;28;20185;-66
2023/05/31 02:20:12;;;;;;;2.20;1.10;;;15.50;80.30;;;;;;5090794;28;20204;-64
2023/05/31 02:22:40;;;;;;;2.20;1.20;;;15.50;80.40;;;;;;5088164;28;20197;-65
2023/05/31 02:25:09;;;;;;;1.67;1.10;;;15.50;80.40;;;;;;5085124;28;20657;-65
2023/05/31 02:27:36;;;;;;;2.37;1.20;;;15.50;80.40;;;;;;5079406;28;20296;-65
2023/05/31 02:30:04;;;;;;;1.10;1.00;;;15.40;80.30;;;;;;5092157;28;20527;-65
2023/05/31 02:32:35;;;;;;;1.43;1.00;;;15.40;80.60;;;;;;5088365;28;20211;-65
2023/05/31 02:35:03;;;;;;;1.13;0.90;;;15.30;80.60;;;;;;5092270;28;20204;-64
2023/05/31 02:37:32;;;;;;;1.87;1.20;;;15.30;80.60;;;;;;5078248;28;20206;-64
2023/05/31 02:39:59;;;;;;;1.50;1.30;;;15.30;80.70;;;;;;5088449;28;20200;-65
2023/05/31 02:42:26;;;;;;;1.40;1.30;;;15.40;80.70;;;;;;5090516;28;20264;-65
2023/05/31 02:44:53;;;;;;;1.00;1.00;;;15.50;80.60;;;;;;5073629;28;20678;-64
2023/05/31 02:47:21;;;;;;;2.07;1.17;;;15.50;80.40;;;;;;5082221;28;20213;-65
2023/05/31 02:49:48;;;;;;;1.50;1.40;;;15.50;80.30;;;;;;5091567;28;20216;-65
2023/05/31 02:52:15;;;;;;;1.50;1.40;;;15.50;80.30;;;;;;5079389;28;20197;-65
2023/05/31 02:55:02;;;;;;;1.40;1.30;;;15.50;80.10;;;;;;5086993;28;20199;-65
2023/05/31 02:57:35;;;;;;;1.40;1.30;;;15.50;79.90;;;;;;5091173;28;20208;-64
2023/05/31 03:00:10;;;;;;;1.40;1.30;;;15.50;79.90;;;;;;5079723;28;20205;-64
2023/05/31 03:02:38;;;;;;;1.67;1.30;;;15.40;79.80;;;;;;5105100;27;20642;-65
2023/05/31 03:05:23;;;;;;;1.60;1.10;;;15.40;79.80;;;;;;5080340;28;20228;-64
2023/05/31 03:07:50;;;;;;;2.07;1.50;;;15.40;79.90;;;;;;5084303;28;20248;-64
2023/05/31 03:10:19;;;;;;;1.53;1.40;;;15.30;79.90;;;;;;5078626;28;20813;-64
2023/05/31 03:12:46;;;;;;;1.50;1.17;;;15.20;79.90;;;;;;5086686;28;20197;-64
2023/05/31 03:15:13;;;;;;;1.30;1.20;;;15.20;80.00;;;;;;5075559;28;20263;-65
2023/05/31 03:17:42;;;;;;;1.70;1.60;;;15.20;80.20;;;;;;5082707;28;20247;-65
2023/05/31 03:20:09;;;;;;;1.67;1.23;;;15.10;80.30;;;;;;5078099;28;22464;-64
2023/05/31 03:22:39;;;;;;;1.43;1.27;;;15.20;80.50;;;;;;5079390;28;20202;-65
2023/05/31 03:25:07;;;;;;;2.60;1.40;;;15.20;80.50;;;;;;5081513;28;20703;-64
2023/05/31 03:27:35;;;;;;;1.57;1.47;;;15.10;80.40;;;;;;5087339;28;20678;-65
2023/05/31 03:30:04;;;;;;;1.53;0.90;;;15.10;80.50;;;;;;5085784;28;20571;-64
2023/05/31 03:32:33;;;;;;;1.50;1.13;;;15.20;80.60;;;;;;5080096;28;20208;-65
2023/05/31 03:35:00;;;;;;;1.47;1.20;;;15.20;80.60;;;;;;5083735;28;20253;-65
2023/05/31 03:37:31;;;;;;;1.87;1.00;;;15.20;80.70;;;;;;5087895;28;20197;-64
2023/05/31 03:40:10;;;;;;;1.30;1.20;;;15.80;81.30;;;;;;5079910;28;20651;-65
2023/05/31 03:42:39;;;;;;;0.87;0.87;;;15.20;80.60;;;;;;5077961;28;20201;-65
2023/05/31 03:45:08;;;;;;;1.30;1.10;;;15.20;80.60;;;;;;5081442;28;20197;-64
2023/05/31 03:47:35;;;;;;;0.90;0.90;;;15.20;80.60;;;;;;5080300;28;20219;-65
2023/05/31 03:50:04;;;;;;;0.90;0.90;;;15.30;80.70;;;;;;5086493;28;20204;-64
2023/05/31 03:52:31;;;;;;;2.17;1.13;;;15.40;80.60;;;;;;5077458;28;20197;-65
2023/05/31 03:54:58;;;;;;;1.20;1.10;;;15.50;80.60;;;;;;5077762;28;20663;-65
2023/05/31 03:57:25;;;;;;;1.70;1.10;;;15.50;80.40;;;;;;5085194;28;20192;-64
2023/05/31 03:59:54;;;;;;;1.23;1.13;;;15.50;80.30;;;;;;5088658;28;20204;-65
2023/05/31 04:02:21;;;;;;;1.37;1.00;;;15.60;80.20;;;;;;5090227;28;20613;-65
2023/05/31 04:04:48;;;;;;;1.50;1.10;;;15.60;79.90;;;;;;5080483;28;20297;-64
2023/05/31 04:07:15;;;;;;;2.60;1.03;;;15.60;79.80;;;;;;5074338;28;20262;-64
2023/05/31 04:09:42;;;;;;;1.83;1.00;;;15.60;79.70;;;;;;5088435;28;20200;-64
2023/05/31 04:12:10;;;;;;;1.30;1.20;;;15.70;79.60;;;;;;5080824;28;20631;-65
2023/05/31 04:14:37;;;;;;;1.20;1.10;;;15.70;79.40;;;;;;5086023;28;20208;-64
2023/05/31 04:17:07;;;;;;;1.63;1.17;;;15.70;79.30;;;;;;5079791;28;20616;-65
2023/05/31 04:19:34;;;;;;;1.60;1.30;;;15.70;79.20;;;;;;5086492;28;20196;-65
2023/05/31 04:22:02;;;;;;;1.30;1.20;;;15.80;79.30;;;;;;5083968;28;20690;-64
2023/05/31 04:24:29;;;;;;;1.47;1.20;;;15.90;79.30;;;;;;5085969;28;20196;-64
2023/05/31 04:26:57;;;;;;;2.37;1.27;;;15.90;79.10;;;;;;5079390;28;20213;-65
2023/05/31 04:29:26;;;;;;;1.30;1.10;;;16.00;79.60;;;;;;5119215;27;20539;-65
2023/05/31 04:31:53;;;;;;;1.20;1.10;;;16.00;79.10;;;;;;5087194;28;20237;-66
2023/05/31 04:34:26;;;;;;;1.20;1.10;;;16.00;79.10;;;;;;5085643;28;20304;-65
2023/05/31 04:36:56;;;;;;;1.47;1.00;;;16.10;79.20;;;;;;5088052;28;20230;-65
2023/05/31 04:39:26;;;;;;;2.37;0.97;;;16.10;79.20;;;;;;5075756;28;20327;-65
2023/05/31 04:41:59;;;;;;;1.97;1.40;;;16.20;79.40;;;;;;5090233;28;20279;-65
2023/05/31 04:44:26;;;;;;;1.17;1.07;;;16.30;79.50;;;;;;5082805;28;20626;-65
2023/05/31 04:46:56;;;;;;;2.10;1.37;;;16.40;79.60;;;;;;5083935;28;20691;-65
2023/05/31 04:49:25;;;;;;;1.10;1.00;;;16.40;79.60;;;;;;5085872;28;20278;-65
2023/05/31 04:51:52;;;;;;;1.80;1.10;;;16.40;79.40;;;;;;5087101;28;20578;-65
2023/05/31 04:54:20;;;;;;;0.93;0.93;;;16.40;79.20;;;;;;5086217;28;20229;-65
2023/05/31 04:56:47;;;;;;;1.80;1.20;;;16.50;79.20;;;;;;5083111;28;20211;-66
2023/05/31 04:59:15;;;;;;;1.10;1.00;;;16.50;78.90;;;;;;5088843;28;20211;-65
2023/05/31 05:01:44;;;;;;;1.00;1.00;;;16.60;78.70;;;;;;5084935;28;20236;-65
2023/05/31 05:04:15;;;;;;;1.97;1.07;;;16.60;78.50;;;;;;5076933;28;20236;-65
2023/05/31 05:06:44;;;;;;;1.57;1.00;;;16.70;78.40;;;;;;5088906;28;20224;-64
2023/05/31 05:09:11;;;;;;;2.33;1.40;;;16.70;78.00;;;;;;5092887;28;20194;-64
2023/05/31 05:11:39;;;;;;;1.13;1.00;;;16.80;77.90;;;;;;5083931;28;20212;-64
2023/05/31 05:14:06;;;;;;;1.17;1.07;;;16.80;77.60;;;;;;5105439;28;20240;-65
2023/05/31 05:16:33;;;;;;;1.03;0.90;;;16.90;77.20;;;;;;5082421;28;20715;-65
2023/05/31 05:19:01;;;;;;;0.80;0.80;;;17.00;76.80;;;;;;5088483;28;20201;-65
2023/05/31 05:21:32;;;;;;;2.40;0.60;;;17.00;76.30;;;;;;5103858;28;20226;-65
2023/05/31 05:24:00;;;;;;;0.90;0.90;;;17.00;75.90;;;;;;5082783;28;20190;-65
2023/05/31 05:26:28;;;;;;;0.73;0.73;;;17.00;75.70;;;;;;5085058;28;20278;-65
2023/05/31 05:28:56;;;;;;;0.90;0.90;;;17.00;75.30;;;;;;5088886;28;20273;-65
2023/05/31 05:31:23;;;;;;;0.90;0.90;;;17.00;75.00;;;;;;5085941;28;20689;-65
2023/05/31 05:33:51;;;;;;;0.70;0.70;;;17.10;74.80;;;;;;5086640;28;20329;-65
2023/05/31 05:36:19;;;;;;;0.83;0.83;;;17.20;74.40;;;;;;5087495;28;20208;-65
2023/05/31 05:38:51;;;;;;;0.80;0.80;;;17.20;74.10;;;;;;5085236;28;20735;-65
2023/05/31 05:41:19;;;;;;;0.77;0.77;;;17.20;73.90;;;;;;5080391;28;20236;-64
2023/05/31 05:43:47;;;;;;;2.03;0.73;;;17.20;73.20;;;;;;5072023;28;20206;-64
2023/05/31 05:46:17;;;;;;;1.55;0.88;;;17.30;72.90;;;;;;5082864;28;20222;-64
2023/05/31 05:48:44;;;;;;;1.15;0.80;;;17.30;72.40;;;;;;5079874;28;20293;-65
2023/05/31 05:51:13;;;;;;;0.67;0.67;;;17.40;72.00;;;;;;5084201;28;20198;-65
2023/05/31 05:53:40;;;;;;;0.97;0.70;;;17.40;71.60;;;;;;5087608;28;20199;-65
2023/05/31 05:56:08;;;;;;;0.90;0.80;;;17.40;71.00;;;;;;5089007;28;20202;-64
2023/05/31 05:58:47;;;;;;;0.80;0.80;;;17.40;70.60;;;;;;5080262;28;20715;-65
2023/05/31 06:01:52;;;;;;;1.60;1.00;;;17.50;70.40;;;;;;5087844;28;20326;-65
2023/05/31 06:04:22;;;;;;;0.70;0.70;;;17.50;70.00;;;;;;5082350;28;20235;-65
2023/05/31 06:06:51;;;;;;;0.73;0.73;;;17.50;69.70;;;;;;5065177;28;20324;-65
2023/05/31 06:09:18;;;;;;;1.37;0.93;;;17.50;69.70;;;;;;5077273;28;20201;-65
2023/05/31 06:11:45;;;;;;;1.90;1.27;;;17.60;69.70;;;;;;5088884;28;20201;-65
2023/05/31 06:14:15;;;;;;;0.80;0.80;;;17.60;69.60;;;;;;5081007;28;20201;-65
2023/05/31 06:16:46;;;;;;;1.00;0.90;;;17.60;69.60;;;;;;5071188;28;20281;-64
2023/05/31 06:19:14;;;;;;;1.45;0.80;;;17.70;69.60;;;;;;5089714;28;20199;-65
2023/05/31 06:21:42;;;;;;;0.93;0.83;;;17.70;69.50;;;;;;5085373;28;20231;-64
2023/05/31 06:24:10;;;;;;;0.97;0.70;;;17.70;69.50;;;;;;5081065;28;20203;-65
2023/05/31 06:26:38;;;;;;;0.90;0.90;;;17.80;69.50;;;;;;5078048;28;20202;-66
2023/05/31 06:29:06;;;;;;;0.45;0.45;;;17.80;69.20;;;;;;5080425;28;20534;-64
2023/05/31 06:32:00;;;;;;;0.60;0.60;;;17.90;69.00;;;;;;5080160;28;20210;-64
2023/05/31 06:34:35;;;;;;;0.88;0.88;;;17.90;69.30;;;;;;5090397;28;20278;-65
2023/05/31 06:37:03;;;;;;;0.70;0.70;;;18.00;68.00;;;;;;5082026;28;20516;-65
2023/05/31 06:39:30;;;;;;;1.65;0.80;;;18.00;67.70;;;;;;5091314;28;20191;-65
2023/05/31 06:41:59;;;;;;;0.70;0.70;;;18.10;67.60;;;;;;5077125;28;20616;-63
2023/05/31 06:44:53;;;;;;;1.08;1.00;;;18.20;67.50;;;;;;5104025;27;20202;-64
2023/05/31 06:47:33;;;;;;;1.23;1.00;;;18.20;67.20;;;;;;5086799;28;20226;-64
2023/05/31 06:50:16;;;;;;;1.38;0.80;;;18.30;66.80;;;;;;5071987;28;20226;-64
2023/05/31 06:53:05;;;;;;;1.15;0.90;;;18.40;66.70;;;;;;5086840;28;20220;-64
2023/05/31 06:55:58;;;;;;;0.70;0.70;;;18.40;66.20;;;;;;5089777;28;20218;-64
2023/05/31 06:58:31;;;;;;;0.80;0.80;;;18.50;65.60;;;;;;5086313;28;20207;-65
2023/05/31 07:00:58;;;;;;;0.80;0.80;;;18.60;65.30;;;;;;5088019;28;20218;-64
2023/05/31 07:03:27;;;;;;;0.77;0.77;;;18.70;64.90;;;;;;5081658;28;20232;-66
2023/05/31 07:05:54;;;;;;;0.60;0.60;;;18.70;64.40;;;;;;5085619;28;20243;-64
2023/05/31 07:08:22;;;;;;;1.65;0.90;;;18.80;63.80;;;;;;5080230;28;20309;-64
2023/05/31 07:11:19;;;;;;;0.88;0.88;;;18.80;62.40;;;;;;5053156;28;20214;-65
2023/05/31 07:13:46;;;;;;;0.63;0.60;;;18.90;61.80;;;;;;5084648;28;20189;-64
2023/05/31 07:16:13;;;;;;;0.90;0.90;;;19.00;61.60;;;;;;5081230;28;20200;-65
2023/05/31 07:18:41;;;;;;;0.70;0.70;;;19.10;61.40;;;;;;5088403;28;20227;-64
2023/05/31 07:21:09;;;;;;;0.98;0.60;;;19.10;61.20;;;;;;5086470;28;20197;-65
2023/05/31 07:23:37;;;;;;;0.70;0.70;;;19.20;61.00;;;;;;5087557;28;20199;-66
2023/05/31 07:26:04;;;;;;;1.10;0.73;;;19.30;60.60;;;;;;5089569;28;20266;-65
2023/05/31 07:28:31;;;;;;;0.70;0.70;;;19.40;60.30;;;;;;5086250;28;20679;-64
2023/05/31 07:30:58;;;;;;;0.73;0.73;;;19.50;59.90;;;;;;5089669;28;20222;-64
2023/05/31 07:33:26;;;;;;;0.70;0.70;;;19.50;59.60;;;;;;5074748;28;20197;-64
2023/05/31 07:35:54;;;;;;;4.57;0.70;;;19.60;59.60;;;;;;5079940;28;20193;-65
2023/05/31 07:38:21;;;;;;;0.80;0.80;;;19.70;59.40;;;;;;5079131;28;20243;-64
2023/05/31 07:40:49;;;;;;;0.63;0.63;;;19.80;58.60;;;;;;5079889;28;20208;-65
2023/05/31 07:43:16;;;;;;;0.90;0.90;;;19.80;58.70;;;;;;5077248;28;20192;-65
2023/05/31 07:45:43;;;;;;;0.80;0.80;;;19.90;58.50;;;;;;5075718;28;20730;-65
2023/05/31 07:48:10;;;;;;;0.80;0.80;;;20.00;58.40;;;;;;5080922;28;20233;-65
2023/05/31 07:50:37;;;;;;;0.75;0.75;;;20.00;58.50;;;;;;5077234;28;20192;-65
2023/05/31 07:53:06;;;;;;;0.73;0.73;;;20.10;58.60;;;;;;5074486;28;20186;-66
2023/05/31 07:55:33;;;;;;;0.73;0.73;;;20.20;58.60;;;;;;5081156;28;20224;-64
2023/05/31 07:58:00;;;;;;;0.70;0.70;;;20.20;58.50;;;;;;5079465;28;20309;-64
2023/05/31 08:00:27;;;;;;;1.42;0.68;;;20.30;58.50;;;;;;5086077;28;20244;-65
2023/05/31 08:02:54;;;;;;;0.60;0.60;;;20.30;58.40;;;;;;5081690;28;20256;-65
2023/05/31 08:05:21;;;;;;;1.45;0.82;;;20.40;58.40;;;;;;5086068;28;20208;-65
2023/05/31 08:07:49;;;;;;;1.40;0.70;;;20.40;58.40;;;;;;5083853;28;20205;-65
2023/05/31 08:10:17;;;;;;;0.70;0.70;;;20.50;58.10;;;;;;5083668;28;20197;-65
2023/05/31 08:12:45;;;;;;;1.08;0.93;;;20.50;58.00;;;;;;5079725;28;20709;-65
2023/05/31 08:15:12;;;;;;;0.75;0.75;;;20.50;57.90;;;;;;5079229;28;20220;-65
2023/05/31 08:17:39;;;;;;;0.63;0.63;;;20.50;57.90;;;;;;5077104;28;20223;-65
2023/05/31 08:20:07;;;;;;;0.75;0.75;;;20.50;57.90;;;;;;5087442;28;20241;-64
2023/05/31 08:22:34;;;;;;;0.50;0.50;;;20.60;57.90;;;;;;5079052;28;20281;-64
2023/05/31 08:25:01;;;;;;;0.90;0.90;;;20.70;57.90;;;;;;5084502;28;20188;-65
2023/05/31 08:27:30;;;;;;;1.02;0.93;;;20.80;57.70;;;;;;5091441;28;20220;-65
2023/05/31 08:29:57;;;;;;;0.90;0.90;;;20.90;57.70;;;;;;5089131;28;20203;-64
2023/05/31 08:32:24;;;;;;;0.85;0.85;;;20.90;57.80;;;;;;5085324;28;20282;-64
2023/05/31 08:34:51;;;;;;;1.58;1.35;;;21.10;58.00;;;;;;5086412;28;20212;-65
2023/05/31 08:37:20;;;;;;;1.10;1.08;;;21.20;57.60;;;;;;5083007;28;20305;-64
2023/05/31 08:39:47;;;;;;;1.25;1.02;;;21.30;57.70;;;;;;5082662;28;20205;-64
2023/05/31 08:42:19;;;;;;;1.27;1.17;;;21.40;57.70;;;;;;5087380;28;20189;-64
2023/05/31 08:44:47;;;;;;;3.42;1.10;;;21.50;57.60;;;;;;5076787;28;20212;-65
2023/05/31 08:47:23;;;;;;;0.60;0.60;;;21.60;57.40;;;;;;5079396;28;20193;-64
2023/05/31 08:49:51;;;;;;;0.70;0.70;;;21.60;57.20;;;;;;5085218;28;20192;-64
2023/05/31 08:52:19;;;;;;;1.00;0.70;;;21.70;56.80;;;;;;5081579;28;20648;-64
2023/05/31 08:54:47;;;;;;;0.90;0.90;;;21.70;56.60;;;;;;5083310;28;20261;-65
2023/05/31 08:57:15;;;;;;;1.13;1.10;;;21.80;56.40;;;;;;5084086;28;20277;-65
2023/05/31 08:59:44;;;;;;;0.80;0.80;;;21.80;56.20;;;;;;5080535;28;20258;-64
2023/05/31 09:02:14;;;;;;;0.80;0.80;;;21.90;56.30;;;;;;5082027;28;20197;-64
2023/05/31 09:04:42;;;;;;;0.68;0.68;;;22.00;56.30;;;;;;5075630;28;20314;-64
2023/05/31 09:07:09;;;;;;;0.82;0.82;;;22.10;56.30;;;;;;5075837;28;20191;-65
2023/05/31 09:09:36;;;;;;;0.70;0.70;;;22.10;56.10;;;;;;5088048;28;20212;-65
2023/05/31 09:12:03;;;;;;;0.70;0.70;;;22.20;56.20;;;;;;5085294;28;20552;-64
2023/05/31 09:14:31;;;;;;;1.48;0.95;;;22.30;56.10;;;;;;5076024;28;20197;-64
2023/05/31 09:16:58;;;;;;;2.45;1.02;;;22.40;56.20;;;;;;5084307;28;20188;-64
2023/05/31 09:19:27;;;;;;;0.90;0.90;;;22.40;56.10;;;;;;5083046;28;20226;-64
2023/05/31 09:21:54;;;;;;;2.17;1.25;;;22.50;56.10;;;;;;5080720;28;20204;-64
2023/05/31 09:24:22;;;;;;;1.42;1.20;;;22.50;55.60;;;;;;5085637;28;20201;-64
2023/05/31 09:26:51;;;;;;;1.20;1.10;;;22.60;55.00;;;;;;5083898;28;20555;-63
2023/05/31 09:29:20;;;;;;;0.63;0.60;;;22.60;55.10;;;;;;5092755;28;20215;-65
2023/05/31 09:31:47;;;;;;;0.77;0.77;;;22.60;55.00;;;;;;5083406;28;20315;-65
2023/05/31 09:34:29;;;;;;;1.10;1.10;;;22.60;54.70;;;;;;5083092;28;20263;-65
2023/05/31 09:36:59;;;;;;;1.38;1.00;;;22.60;54.60;;;;;;5085642;28;20249;-65
2023/05/31 09:39:26;;;;;;;0.90;0.90;;;22.70;54.70;;;;;;5089154;28;20858;-64
2023/05/31 09:41:53;;;;;;;1.10;1.10;;;22.80;54.50;;;;;;5072648;28;20211;-64
2023/05/31 09:44:26;;;;;;;0.80;0.80;;;22.80;54.40;;;;;;5077656;28;20185;-64
2023/05/31 09:46:53;;;;;;;0.80;0.80;;;22.90;54.20;;;;;;5081578;28;20200;-64
2023/05/31 09:49:21;;;;;;;0.80;0.80;;;22.90;54.50;;;;;;5076982;28;20251;-64
2023/05/31 09:51:53;;;;;;;0.90;0.80;;;23.00;54.00;;;;;;5082128;28;20204;-65
2023/05/31 09:54:22;;;;;;;0.70;0.70;;;23.10;54.10;;;;;;5090307;28;20208;-65
2023/05/31 09:56:50;;;;;;;1.63;0.70;;;23.10;54.00;;;;;;5083643;28;20793;-65
2023/05/31 09:59:17;;;;;;;0.70;0.70;;;23.20;54.20;;;;;;5089200;28;20199;-65
2023/05/31 10:01:45;;;;;;;0.80;0.80;;;23.30;54.20;;;;;;5088302;28;20694;-64
2023/05/31 10:04:13;;;;;;;3.25;0.90;;;23.40;54.20;;;;;;5086734;28;20275;-64
2023/05/31 10:06:40;;;;;;;0.70;0.70;;;23.50;54.00;;;;;;5089921;28;20188;-64
2023/05/31 10:09:09;;;;;;;1.10;0.88;;;23.50;53.70;;;;;;5091462;28;20771;-64
2023/05/31 10:11:37;;;;;;;1.02;0.90;;;23.60;53.60;;;;;;5085078;28;20193;-64
2023/05/31 10:14:08;;;;;;;1.30;1.17;;;23.60;53.10;;;;;;5087220;28;20204;-65
2023/05/31 10:16:42;;;;;;;1.30;0.90;;;23.60;52.90;;;;;;5084874;28;20189;-65
2023/05/31 10:19:12;;;;;;;0.90;0.90;;;23.70;52.90;;;;;;5091857;28;20195;-64
2023/05/31 10:21:44;;;;;;;0.80;0.80;;;23.70;52.70;;;;;;5089318;28;20284;-64
2023/05/31 10:24:20;;;;;;;0.82;0.82;;;23.80;52.90;;;;;;5084832;28;20189;-64
2023/05/31 10:26:56;;;;;;;1.05;0.80;;;23.80;52.80;;;;;;5085151;28;20742;-64
2023/05/31 10:29:27;;;;;;;0.80;0.80;;;23.90;52.50;;;;;;5086068;28;20227;-64
2023/05/31 10:31:58;;;;;;;0.82;0.82;;;23.90;52.20;;;;;;5082972;28;20286;-64
2023/05/31 10:34:26;;;;;;;3.10;1.00;;;23.90;51.80;;;;;;5084305;28;20586;-66
2023/05/31 10:36:55;;;;;;;0.85;0.85;;;24.00;51.60;;;;;;5085569;28;20272;-63
2023/05/31 10:39:30;;;;;;;10.80;1.42;;;24.00;51.60;;;;;;5089364;28;20237;-63
2023/05/31 10:42:10;;;;;;;1.73;0.90;;;24.00;51.30;;;;;;5090807;28;20188;-64
2023/05/31 10:44:46;;;;;;;1.00;1.00;;;24.00;51.10;;;;;;5086352;28;20224;-64
2023/05/31 10:47:16;;;;;;;0.70;0.70;;;24.00;51.20;;;;;;5088046;28;20200;-64
2023/05/31 10:49:46;;;;;;;0.82;0.82;;;24.10;51.40;;;;;;5084837;28;20259;-64
2023/05/31 10:52:14;;;;;;;0.70;0.70;;;24.20;51.40;;;;;;5084271;28;20200;-65
2023/05/31 10:54:43;;;;;;;0.70;0.70;;;24.30;51.40;;;;;;5086700;28;20201;-65
2023/05/31 10:57:12;;;;;;;1.08;0.93;;;24.40;51.40;;;;;;5089108;28;20663;-65
2023/05/31 10:59:45;;;;;;;2.25;0.90;;;24.40;51.10;;;;;;5084195;28;20200;-64
2023/05/31 11:02:12;;;;;;;2.50;0.90;;;24.40;51.10;;;;;;5083430;28;20189;-65
2023/05/31 11:04:39;;;;;;;0.90;0.90;;;24.50;51.10;;;;;;5087961;28;20232;-65
2023/05/31 11:07:16;;;;;;;1.13;1.00;;;24.50;51.10;;;;;;5080240;28;20184;-65
2023/05/31 11:09:58;;;;;;;1.42;0.90;;;24.60;51.00;;;;;;5081028;28;20201;-65
2023/05/31 11:12:35;;;;;;;1.23;1.13;;;24.70;50.70;;;;;;5095229;28;20214;-65
2023/05/31 11:15:05;;;;;;;0.90;0.90;;;24.70;50.70;;;;;;5079742;28;20206;-64
2023/05/31 11:17:41;;;;;;;0.88;0.88;;;24.70;50.40;;;;;;5081058;28;20196;-64
2023/05/31 11:20:15;;;;;;;1.27;1.20;;;24.70;50.40;;;;;;5085139;28;20666;-64
2023/05/31 11:22:42;;;;;;;2.75;1.38;;;24.70;50.00;;;;;;5081803;28;20199;-64
2023/05/31 11:25:20;;;;;;;0.90;0.90;;;24.80;49.90;;;;;;5078777;28;20280;-64
2023/05/31 11:27:49;;;;;;;1.25;1.13;;;24.80;50.00;;;;;;5077039;28;20197;-64
2023/05/31 11:30:17;;;;;;;1.00;1.00;;;24.90;50.00;;;;;;5078443;28;20206;-64
2023/05/31 11:32:58;;;;;;;1.42;1.10;;;24.90;49.90;;;;;;5083771;28;20188;-65
2023/05/31 11:35:26;;;;;;;2.20;1.02;;;25.00;49.70;;;;;;5085806;28;20529;-65
2023/05/31 11:38:11;;;;;;;0.98;0.95;;;25.00;49.40;;;;;;5084025;28;20194;-65
2023/05/31 11:40:39;;;;;;;1.45;1.10;;;25.00;49.10;;;;;;5089534;28;20457;-65
2023/05/31 11:43:08;;;;;;;0.90;0.90;;;25.00;48.80;;;;;;5082034;28;20211;-65
2023/05/31 11:45:46;;;;;;;0.85;0.82;;;25.00;48.90;;;;;;5088582;28;20197;-63
2023/05/31 11:48:31;;;;;;;1.02;0.93;;;25.00;48.70;;;;;;5103630;27;20192;-64
2023/05/31 11:50:58;;;;;;;0.80;0.80;;;25.10;48.80;;;;;;5085107;28;20743;-64
2023/05/31 11:53:27;;;;;;;0.95;0.93;;;25.10;48.40;;;;;;5087271;28;20208;-64
2023/05/31 11:55:58;;;;;;;1.17;0.82;;;25.10;48.30;;;;;;5084182;28;20201;-65
2023/05/31 11:58:26;;;;;;;0.90;0.90;;;25.10;48.20;;;;;;5081552;28;20203;-64
2023/05/31 12:00:58;;;;;;;0.90;0.90;;;25.10;48.10;;;;;;5078486;28;20285;-65
2023/05/31 12:03:25;;;;;;;0.93;0.93;;;25.10;48.20;;;;;;5079739;28;20312;-65
2023/05/31 12:05:58;;;;;;;0.88;0.88;;;25.10;48.30;;;;;;5079298;28;20200;-65
2023/05/31 12:08:28;;;;;;;0.95;0.95;;;25.20;48.40;;;;;;5082117;28;20188;-64
2023/05/31 12:11:03;;;;;;;4.25;1.13;;;25.20;48.10;;;;;;5089265;28;20219;-64
2023/05/31 12:13:31;;;;;;;3.00;1.00;;;25.30;48.00;;;;;;5086511;28;20192;-64
2023/05/31 12:15:58;;;;;;;1.00;1.00;;;25.30;47.80;;;;;;5085834;28;20196;-64
2023/05/31 12:18:25;;;;;;;3.33;1.30;;;25.40;47.60;;;;;;5073227;28;20193;-64
2023/05/31 12:20:52;;;;;;;2.50;1.38;;;25.40;47.40;;;;;;5086070;28;20200;-63
2023/05/31 12:23:21;;;;;;;1.15;1.02;;;25.40;47.20;;;;;;5088786;28;20277;-65
2023/05/31 12:25:49;;;;;;;1.60;0.98;;;25.40;47.10;;;;;;5083424;28;20697;-64
2023/05/31 12:28:22;;;;;;;1.80;1.00;;;25.40;47.20;;;;;;5086589;28;20234;-64
2023/05/31 12:30:51;;;;;;;1.73;1.17;;;25.40;47.30;;;;;;5087795;28;20205;-65
2023/05/31 12:33:18;;;;;;;1.52;0.82;;;25.40;47.10;;;;;;5085650;28;20288;-65
2023/05/31 12:35:47;;;;;;;1.08;1.08;;;25.40;46.80;;;;;;5086011;28;20329;-64
2023/05/31 12:38:16;;;;;;;1.00;1.00;;;25.40;46.80;;;;;;5082812;28;20186;-64
2023/05/31 12:40:44;;;;;;;1.00;1.00;;;25.50;46.20;;;;;;5083061;28;20250;-64
2023/05/31 12:43:14;;;;;;;2.88;1.42;;;25.50;46.50;;;;;;5088583;28;20287;-64
2023/05/31 12:45:43;;;;;;;1.33;1.20;;;25.50;45.40;;;;;;5079156;28;20201;-63
2023/05/31 12:48:11;;;;;;;1.00;1.00;;;25.50;44.40;;;;;;5082766;28;20216;-63
2023/05/31 12:50:44;;;;;;;1.10;1.00;;;25.40;44.50;;;;;;5085368;28;20216;-64
2023/05/31 12:53:11;;;;;;;1.92;1.20;;;25.40;44.50;;;;;;5087875;28;20189;-64
2023/05/31 12:55:38;;;;;;;1.08;1.08;;;25.50;44.30;;;;;;5081750;28;20614;-64
2023/05/31 12:58:05;;;;;;;2.05;1.00;;;25.50;45.00;;;;;;5085833;28;20204;-65
2023/05/31 13:00:33;;;;;;;0.95;0.95;;;25.60;44.10;;;;;;5079860;28;20189;-65